Weather History for Vinton, IA

Change the Weather History Date:

Friday, February 28, 2014

  Actual Average Record
Temperature  
Mean Temperature 12 °F -  
Max Temperature 29 °F 40 °F 57 °F (1965)
Min Temperature -5 °F 22 °F -12 °F (1962)
Degree Days  
Heating Degree Days 53    
Moisture  
Dew Point 5 °F    
Average Humidity 66    
Maximum Humidity 85    
Minimum Humidity 57    
Precipitation  
Precipitation 0.00 in - - ()
Sea Level Pressure  
Sea Level Pressure 29.98 in    
Wind  
Wind Speed 9 mph (SE)    
Max Wind Speed 21 mph    
Max Gust Speed 26 mph    
Visibility 9 miles    
Events Snow    
Averages and records for this station are not official NWS values.
T = Trace of Precipitation, MM = Missing Value Source: NWS Daily Summary

Daily Weather History Graph

Daily Weather History Graph

Search for Another Location

Airport:

Trip Planner

Search our weather history database for the weather conditions in past years. The results will help you decide how hot, cold, wet, or windy it might be!

Date:

Astronomy

Feb. 28, 2014 Rise Set
Actual Time 6:44 AM CST 5:56 PM CST
Civil Twilight 6:16 AM CST 6:25 PM CST
Nautical Twilight 5:44 AM CST 6:57 PM CST
Astronomical Twilight 5:11 AM CST 7:30 PM CST
Moon 6:00 AM CST (2/28) 5:34 PM CST (2/28)
Length of Visible Light 12h 08m
Length of Day
11h 12m
Waning Crescent, 1% of the Moon is Illuminated
Feb 28
Waning Crescent
Mar 1
New
Mar 8
First Quarter
Mar 16
Full
Mar 23
Last Quarter

Hourly Weather History & Observations

Time (CST) Temp. Windchill Dew Point Humidity Pressure Visibility Wind Dir Wind Speed Gust Speed Precip Events Conditions
12:15 AM -5.6 °F -14.3 °F -15.2 °F 63% 30.10 in 10.0 mi ESE 3.5 mph - N/A   Clear
12:35 AM -5.8 °F -14.5 °F -15.3 °F 63% 30.10 in 10.0 mi ESE 3.5 mph - N/A   Clear
12:55 AM -5.8 °F -16.7 °F -15.3 °F 63% 30.10 in 10.0 mi ESE 4.6 mph - N/A   Clear
1:15 AM -4.4 °F -15.0 °F -14.3 °F 62% 30.09 in 10.0 mi ESE 4.6 mph - N/A   Clear
1:35 AM -5.8 °F -16.7 °F -15.2 °F 64% 30.09 in 10.0 mi East 4.6 mph - N/A   Clear
1:55 AM -5.8 °F -16.7 °F -14.8 °F 65% 30.08 in 10.0 mi ESE 4.6 mph - N/A   Clear
2:15 AM -4.4 °F -18.2 °F -13.5 °F 65% 30.07 in 10.0 mi ESE 6.9 mph - N/A   Clear
2:35 AM -3.1 °F -15.2 °F -12.5 °F 64% 30.05 in 10.0 mi ESE 5.8 mph - N/A   Clear
2:55 AM -3.1 °F -19.1 °F -12.5 °F 64% 30.05 in 10.0 mi ESE 9.2 mph - N/A   Clear
3:20 AM -2.0 °F -17.7 °F -11.0 °F 66% 30.03 in 10.0 mi ESE 9.2 mph - N/A   Clear
3:35 AM -0.6 °F -13.6 °F -9.6 °F 66% 30.03 in 10.0 mi ESE 6.9 mph - N/A   Clear
3:55 AM -0.6 °F -12.2 °F -9.9 °F 65% 30.04 in 10.0 mi SE 5.8 mph - N/A   Clear
4:15 AM 1.9 °F -12.9 °F -8.5 °F 62% 30.04 in 10.0 mi SE 9.2 mph - N/A   Clear
4:35 AM 1.9 °F -12.9 °F -8.5 °F 62% 30.05 in 10.0 mi SSE 9.2 mph - N/A   Clear
4:55 AM 2.3 °F -14.2 °F -7.8 °F 63% 30.04 in 10.0 mi SSE 11.5 mph - N/A   Clear
5:15 AM 3.2 °F -10.3 °F -6.5 °F 64% 30.03 in 10.0 mi SSE 8.1 mph - N/A   Clear
5:35 AM 3.7 °F -11.6 °F -6.5 °F 62% 30.02 in 10.0 mi SE 10.4 mph - N/A   Clear
5:55 AM 4.1 °F -12.7 °F -6.2 °F 63% 30.02 in 10.0 mi SE 12.7 mph 16.1 mph N/A   Clear
6:15 AM 4.1 °F -12.0 °F -5.8 °F 64% 30.01 in 10.0 mi SE 11.5 mph - N/A   Clear
6:35 AM 4.5 °F -10.7 °F -5.3 °F 64% 30.00 in 10.0 mi SSE 10.4 mph - N/A   Clear
6:55 AM 6.4 °F -10.5 °F -3.3 °F 64% 29.99 in 10.0 mi SE 13.8 mph - N/A   Clear
7:20 AM 6.8 °F -9.3 °F -3.1 °F 64% 29.99 in 10.0 mi SE 12.7 mph 17.3 mph N/A   Clear
7:35 AM 6.8 °F -9.3 °F -2.9 °F 64% 29.98 in 10.0 mi SSE 12.7 mph - N/A   Clear
7:55 AM 9.5 °F -7.8 °F -0.4 °F 64% 29.98 in 10.0 mi SSE 16.1 mph - N/A   Clear
8:15 AM 9.5 °F -7.2 °F -0.4 °F 64% 29.98 in 10.0 mi SSE 15.0 mph 21.9 mph N/A   Clear
8:35 AM 9.5 °F -7.8 °F -0.4 °F 64% 29.96 in 10.0 mi SSE 16.1 mph 24.2 mph N/A   Clear
8:55 AM 9.7 °F -8.1 °F -0.2 °F 64% 29.96 in 10.0 mi SSE 17.3 mph 21.9 mph N/A   Clear
9:15 AM 12.0 °F -5.1 °F 2.1 °F 65% 29.95 in 10.0 mi SSE 17.3 mph 24.2 mph N/A   Clear
9:35 AM 12.9 °F -3.9 °F 2.1 °F 62% 29.95 in 10.0 mi SSE 17.3 mph 24.2 mph N/A   Clear
9:55 AM 14.5 °F -2.3 °F 3.2 °F 61% 29.94 in 10.0 mi SSE 18.4 mph 25.3 mph N/A   Clear
10:15 AM 15.3 °F -1.3 °F 3.6 °F 60% 29.93 in 10.0 mi SSE 18.4 mph 25.3 mph N/A   Clear
10:35 AM 17.1 °F 2.0 °F 5.0 °F 59% 29.93 in 10.0 mi SSE 16.1 mph 24.2 mph N/A   Clear
10:55 AM 17.6 °F 0.9 °F 5.2 °F 58% 29.94 in 10.0 mi SSE 20.7 mph 26.5 mph N/A   Clear
11:15 AM 19.4 °F 5.0 °F 6.8 °F 58% 29.94 in 10.0 mi SSE 16.1 mph 21.9 mph N/A   Clear
11:35 AM 19.4 °F 3.6 °F 6.6 °F 58% 29.94 in 10.0 mi SSE 19.6 mph 25.3 mph N/A   Clear
11:55 AM 20.1 °F 6.4 °F 7.2 °F 57% 29.94 in 10.0 mi SSE 15.0 mph 18.4 mph N/A   Clear
12:15 PM 20.8 °F 7.9 °F 8.2 °F 58% 29.93 in 10.0 mi South 13.8 mph 19.6 mph N/A   Clear
12:35 PM 21.0 °F 9.3 °F 8.8 °F 59% 29.92 in 10.0 mi SSE 11.5 mph 19.6 mph N/A   Clear
12:55 PM 22.1 °F 8.9 °F 10.0 °F 60% 29.91 in 10.0 mi SSE 15.0 mph 18.4 mph N/A   Clear
1:15 PM 22.8 °F 9.9 °F 10.2 °F 59% 29.90 in 10.0 mi SSE 15.0 mph 21.9 mph N/A   Clear
1:35 PM 24.6 °F 13.8 °F 12.2 °F 59% 29.89 in 10.0 mi SSE 11.5 mph 19.6 mph N/A   Clear
1:55 PM 26.6 °F 14.3 °F 14.4 °F 60% 29.88 in 10.0 mi SSE 16.1 mph 24.2 mph N/A   Clear
2:15 PM 27.1 °F 15.9 °F 14.9 °F 60% 29.87 in 10.0 mi South 13.8 mph 20.7 mph N/A   Clear
2:35 PM 27.1 °F 14.9 °F 14.7 °F 60% 29.87 in 10.0 mi South 16.1 mph 19.6 mph N/A   Clear
2:55 PM 27.1 °F 15.4 °F 14.9 °F 60% 29.87 in 10.0 mi SSE 15.0 mph 19.6 mph N/A   Clear
3:15 PM 27.1 °F 18.9 °F 14.7 °F 60% 29.89 in 10.0 mi South 8.1 mph - N/A   Clear
3:35 PM 29.7 °F 22.0 °F 16.5 °F 58% 29.89 in 10.0 mi South 8.1 mph - N/A   Clear
3:55 PM 29.7 °F 24.7 °F 16.9 °F 59% 29.90 in 10.0 mi SSW 4.6 mph - N/A   Clear
4:15 PM 29.7 °F - 17.1 °F 59% 29.91 in 10.0 mi Calm Calm - N/A   Clear
4:35 PM 29.7 °F - 16.7 °F 59% 29.91 in 10.0 mi Calm Calm - N/A   Clear
4:55 PM 29.7 °F - 17.1 °F 59% 29.92 in 10.0 mi Calm Calm - N/A   Clear
5:15 PM 29.7 °F - 18.5 °F 63% 29.92 in 10.0 mi Calm Calm - N/A   Clear
5:35 PM 29.7 °F - 19.4 °F 66% 29.93 in 10.0 mi Calm Calm - N/A   Clear
5:55 PM 29.7 °F 26.1 °F 19.2 °F 65% 29.93 in 10.0 mi ENE 3.5 mph - N/A   Clear
6:15 PM 27.3 °F 20.9 °F 18.5 °F 69% 29.93 in 10.0 mi ESE 5.8 mph - N/A   Scattered Clouds
6:35 PM 27.1 °F 23.2 °F 18.7 °F 70% 29.95 in 10.0 mi NNE 3.5 mph - N/A   Scattered Clouds
6:55 PM 27.1 °F 23.2 °F 18.3 °F 69% 29.95 in 10.0 mi North 3.5 mph - N/A   Clear
7:15 PM 27.1 °F 19.7 °F 16.7 °F 65% 29.97 in 10.0 mi North 6.9 mph - N/A   Clear
7:35 PM 23.4 °F 11.6 °F 17.6 °F 79% 29.97 in 7.0 mi North 12.7 mph - N/A   Clear
7:55 PM 22.6 °F 11.9 °F 18.3 °F 83% 29.98 in 5.0 mi NNW 10.4 mph - N/A   Scattered Clouds
8:15 PM 22.1 °F 10.6 °F 18.1 °F 85% 29.98 in 10.0 mi North 11.5 mph - N/A   Scattered Clouds
8:35 PM 22.1 °F 12.0 °F 17.6 °F 83% 29.99 in 10.0 mi NNW 9.2 mph - N/A   Mostly Cloudy
8:55 PM 21.4 °F 10.4 °F 17.2 °F 84% 30.00 in 7.0 mi NNW 10.4 mph 16.1 mph N/A Snow Light Snow
9:15 PM 20.8 °F 9.7 °F 16.7 °F 84% 30.00 in 4.0 mi NNW 10.4 mph - N/A Snow Light Snow
9:35 PM 20.8 °F 9.7 °F 16.5 °F 83% 30.02 in 7.0 mi NNW 10.4 mph - N/A Snow Light Snow
9:55 PM 19.9 °F 7.9 °F 15.4 °F 83% 30.03 in 7.0 mi NNW 11.5 mph 16.1 mph N/A   Overcast
10:15 PM 19.4 °F 8.6 °F 15.1 °F 83% 30.03 in 3.0 mi NNW 9.2 mph - N/A Snow Light Snow
10:35 PM 19.4 °F 7.2 °F 15.4 °F 85% 30.03 in 4.0 mi NNW 11.5 mph - N/A Snow Light Snow
10:55 PM 19.4 °F 8.6 °F 15.3 °F 84% 30.04 in 3.0 mi NNW 9.2 mph 16.1 mph N/A Snow Light Snow
11:15 PM 19.4 °F 7.2 °F 15.3 °F 84% 30.05 in 7.0 mi NNW 11.5 mph - N/A Snow Light Snow
11:35 PM 19.4 °F 6.6 °F 14.9 °F 83% 30.05 in 4.0 mi NNW 12.7 mph 19.6 mph N/A Snow Light Snow
11:55 PM 19.4 °F 7.9 °F 14.7 °F 82% 30.06 in 7.0 mi NNW 10.4 mph 18.4 mph N/A   Mostly Cloudy